WZZ66ZD EFTU-EYVI
Flight info
| Callsign | WZZ66ZD |
|---|---|
| Flight time | N/A |
| Altitude | 37000 |
| Route | UPAPU DCT PETOT DCT LUTAL N994 ERIVA DCT ODLIT DCT MURUN DCT PIFBO |
| Aircraft | A321/M-SDE3FGHIRWY/LB1 |
Departure
| Time | N/A |
|---|---|
| Airport | Turku Airport (EFTU) |
Arrival
| Time | 2026-04-29 17:21 |
|---|---|
| Airport | Vilnius International Airport (EYVI) |
| Time | Latitude | Longitude | Altitude | Speed | Heading |
|---|---|---|---|---|---|
| 2026-04-29 17:04 | 55.64557 | 24.91479 | 24845 ft | 380 kts | 167° |
| 2026-04-29 17:04 | 55.61988 | 24.92452 | 24425 ft | 377 kts | 168° |
| 2026-04-29 17:04 | 55.59425 | 24.93419 | 24024 ft | 374 kts | 168° |
| 2026-04-29 17:05 | 55.56885 | 24.94381 | 23584 ft | 372 kts | 167° |
| 2026-04-29 17:05 | 55.54370 | 24.95336 | 23155 ft | 367 kts | 168° |
| 2026-04-29 17:05 | 55.51892 | 24.96276 | 22739 ft | 363 kts | 168° |
| 2026-04-29 17:05 | 55.49436 | 24.97159 | 22332 ft | 358 kts | 172° |
| 2026-04-29 17:06 | 55.46971 | 24.97386 | 21924 ft | 353 kts | 184° |
| 2026-04-29 17:06 | 55.44557 | 24.96839 | 21522 ft | 348 kts | 190° |
| 2026-04-29 17:06 | 55.42176 | 24.96156 | 21119 ft | 344 kts | 189° |
| 2026-04-29 17:06 | 55.39791 | 24.95990 | 20613 ft | 344 kts | 177° |
| 2026-04-29 17:07 | 55.37413 | 24.96241 | 20205 ft | 341 kts | 177° |
| 2026-04-29 17:07 | 55.35852 | 24.96405 | 19932 ft | 339 kts | 177° |
| 2026-04-29 17:07 | 55.32716 | 24.96732 | 19395 ft | 335 kts | 178° |
| 2026-04-29 17:07 | 55.30394 | 24.96979 | 18987 ft | 333 kts | 178° |
| 2026-04-29 17:08 | 55.28115 | 24.97223 | 18590 ft | 332 kts | 178° |
| 2026-04-29 17:08 | 55.25816 | 24.97470 | 18150 ft | 330 kts | 178° |
| 2026-04-29 17:08 | 55.23533 | 24.97714 | 17747 ft | 327 kts | 178° |
| 2026-04-29 17:08 | 55.21270 | 24.97953 | 17353 ft | 324 kts | 178° |
| 2026-04-29 17:09 | 55.19027 | 24.98190 | 16957 ft | 322 kts | 178° |
| 2026-04-29 17:09 | 55.16803 | 24.98425 | 16546 ft | 319 kts | 177° |
| 2026-04-29 17:09 | 55.14604 | 24.98661 | 16203 ft | 316 kts | 177° |
| 2026-04-29 17:09 | 55.12408 | 24.98896 | 15627 ft | 320 kts | 177° |
| 2026-04-29 17:10 | 55.10168 | 24.99133 | 15112 ft | 323 kts | 177° |
| 2026-04-29 17:10 | 55.07930 | 24.99365 | 14717 ft | 321 kts | 177° |
| 2026-04-29 17:10 | 55.05704 | 24.99595 | 14328 ft | 320 kts | 177° |
| 2026-04-29 17:10 | 55.03486 | 24.99830 | 13923 ft | 318 kts | 177° |
| 2026-04-29 17:11 | 55.01273 | 25.00063 | 13510 ft | 316 kts | 177° |
| 2026-04-29 17:11 | 54.99082 | 25.00292 | 13130 ft | 314 kts | 177° |
| 2026-04-29 17:11 | 54.96916 | 25.00523 | 12748 ft | 311 kts | 177° |
| 2026-04-29 17:11 | 54.94761 | 25.00754 | 12373 ft | 309 kts | 177° |
| 2026-04-29 17:12 | 54.92622 | 25.00981 | 11991 ft | 307 kts | 177° |
| 2026-04-29 17:12 | 54.90501 | 25.01201 | 11627 ft | 305 kts | 177° |
| 2026-04-29 17:12 | 54.88380 | 25.01421 | 11251 ft | 303 kts | 177° |
| 2026-04-29 17:12 | 54.86971 | 25.01570 | 11014 ft | 302 kts | 177° |
| 2026-04-29 17:13 | 54.81386 | 25.02166 | 10049 ft | 299 kts | 177° |
| 2026-04-29 17:13 | 54.77262 | 25.02602 | 9295 ft | 295 kts | 177° |
| 2026-04-29 17:13 | 54.73205 | 25.03023 | 8589 ft | 289 kts | 178° |
| 2026-04-29 17:13 | 54.69210 | 25.03437 | 7877 ft | 286 kts | 178° |
| 2026-04-29 17:14 | 54.65262 | 25.03850 | 7171 ft | 284 kts | 178° |
| 2026-04-29 17:14 | 54.61312 | 25.04255 | 6451 ft | 283 kts | 178° |
| 2026-04-29 17:14 | 54.57409 | 25.04661 | 5736 ft | 280 kts | 178° |
| 2026-04-29 17:14 | 54.53936 | 25.05026 | 5106 ft | 278 kts | 178° |
| 2026-04-29 17:15 | 54.52008 | 25.05221 | 4742 ft | 276 kts | 177° |
| 2026-04-29 17:15 | 54.50165 | 25.05838 | 4482 ft | 271 kts | 158° |
| 2026-04-29 17:15 | 54.48592 | 25.07441 | 4383 ft | 256 kts | 136° |
| 2026-04-29 17:15 | 54.47465 | 25.09721 | 4291 ft | 240 kts | 116° |
| 2026-04-29 17:16 | 54.46793 | 25.12311 | 4215 ft | 237 kts | 105° |
| 2026-04-29 17:16 | 54.46656 | 25.15002 | 4063 ft | 217 kts | 71° |
| 2026-04-29 17:16 | 54.47333 | 25.17116 | 3931 ft | 194 kts | 39° |
| 2026-04-29 17:16 | 54.48443 | 25.18264 | 3739 ft | 184 kts | 18° |
| 2026-04-29 17:17 | 54.49638 | 25.19060 | 3475 ft | 187 kts | 17° |
| 2026-04-29 17:17 | 54.50859 | 25.19860 | 3235 ft | 194 kts | 19° |
| 2026-04-29 17:17 | 54.52099 | 25.20726 | 3067 ft | 182 kts | 19° |
| 2026-04-29 17:17 | 54.53227 | 25.21522 | 2789 ft | 171 kts | 18° |
| 2026-04-29 17:18 | 54.54300 | 25.22274 | 2469 ft | 163 kts | 18° |
| 2026-04-29 17:18 | 54.54979 | 25.22750 | 2266 ft | 155 kts | 18° |
| 2026-04-29 17:18 | 54.55977 | 25.23426 | 2024 ft | 153 kts | 18° |
| 2026-04-29 17:18 | 54.56920 | 25.24097 | 1940 ft | 143 kts | 18° |
| 2026-04-29 17:19 | 54.57793 | 25.24687 | 1744 ft | 128 kts | 17° |
| 2026-04-29 17:19 | 54.58631 | 25.25256 | 1455 ft | 131 kts | 18° |
| 2026-04-29 17:19 | 54.59472 | 25.25846 | 1248 ft | 131 kts | 18° |
| 2026-04-29 17:19 | 54.60327 | 25.26443 | 1048 ft | 132 kts | 20° |
| 2026-04-29 17:20 | 54.61179 | 25.27030 | 876 ft | 131 kts | 18° |
| 2026-04-29 17:20 | 54.62030 | 25.27625 | 691 ft | 133 kts | 19° |
| 2026-04-29 17:20 | 54.62862 | 25.28200 | 614 ft | 117 kts | 20° |
| 2026-04-29 17:20 | 54.63486 | 25.28624 | 620 ft | 72 kts | 22° |
| 2026-04-29 17:21 | 54.63811 | 25.28851 | 635 ft | 38 kts | 21° |
| 2026-04-29 17:21 | 54.64051 | 25.29019 | 647 ft | 41 kts | 21° |
| 2026-04-29 17:21 | 54.64318 | 25.29201 | 656 ft | 35 kts | 22° |
| 2026-04-29 17:21 | 54.64438 | 25.29272 | 657 ft | 13 kts | 353° |
| 2026-04-29 17:22 | 54.64491 | 25.29161 | 657 ft | 13 kts | 295° |
| 2026-04-29 17:22 | 54.64517 | 25.29071 | 657 ft | 3 kts | 296° |
| 2026-04-29 17:22 | 54.64529 | 25.29031 | 657 ft | 4 kts | 298° |
| 2026-04-29 17:22 | 54.64539 | 25.28971 | 657 ft | 6 kts | 266° |
| 2026-04-29 17:23 | 54.64507 | 25.28919 | 657 ft | 8 kts | 206° |
| 2026-04-29 17:23 | 54.64445 | 25.28873 | 662 ft | 11 kts | 202° |
| 2026-04-29 17:23 | 54.64386 | 25.28753 | 655 ft | 15 kts | 241° |
| 2026-04-29 17:23 | 54.64360 | 25.28676 | 651 ft | 7 kts | 233° |
| 2026-04-29 17:24 | 54.64307 | 25.28658 | 650 ft | 10 kts | 169° |
| 2026-04-29 17:24 | 54.64228 | 25.28650 | 648 ft | 12 kts | 233° |
| 2026-04-29 17:24 | 54.64212 | 25.28475 | 644 ft | 18 kts | 263° |
| 2026-04-29 17:24 | 54.64186 | 25.28308 | 642 ft | 0 kts | 244° |
| 2026-04-29 17:25 | 54.64188 | 25.28297 | 642 ft | 1 kts | 295° |
| 2026-04-29 17:25 | 54.64224 | 25.28283 | 644 ft | 8 kts | 353° |
| 2026-04-29 17:25 | 54.64250 | 25.28282 | 641 ft | 0 kts | 359° |